sensor_id;sensor_type;location;lat;lon;timestamp;pressure;altitude;pressure_sealevel;temperature;humidity
2711;BME280;20721;47.402;8.550;2023-03-14T00:00:13;94934;;;13.00;64.34
2711;BME280;20721;47.402;8.550;2023-03-14T00:01:14;94933;;;12.98;64.81
2711;BME280;20721;47.402;8.550;2023-03-14T00:02:12;94937;;;12.97;65.03
2711;BME280;20721;47.402;8.550;2023-03-14T00:03:12;94929;;;12.83;63.94
2711;BME280;20721;47.402;8.550;2023-03-14T00:04:12;94930;;;12.71;64.05
2711;BME280;20721;47.402;8.550;2023-03-14T00:05:12;94931;;;12.60;64.83
2711;BME280;20721;47.402;8.550;2023-03-14T00:06:12;94941;;;12.53;65.41
2711;BME280;20721;47.402;8.550;2023-03-14T00:07:12;94947;;;12.51;65.94
2711;BME280;20721;47.402;8.550;2023-03-14T00:08:12;94950;;;12.52;65.22
2711;BME280;20721;47.402;8.550;2023-03-14T00:09:13;94952;;;12.51;65.47
2711;BME280;20721;47.402;8.550;2023-03-14T00:10:13;94954;;;12.41;65.35
2711;BME280;20721;47.402;8.550;2023-03-14T00:11:14;94954;;;12.34;65.49
2711;BME280;20721;47.402;8.550;2023-03-14T00:12:14;94956;;;12.25;65.70
2711;BME280;20721;47.402;8.550;2023-03-14T00:13:12;94953;;;12.15;66.69
2711;BME280;20721;47.402;8.550;2023-03-14T00:15:12;94950;;;12.11;65.83
2711;BME280;20721;47.402;8.550;2023-03-14T00:16:12;94951;;;11.96;65.81
2711;BME280;20721;47.402;8.550;2023-03-14T00:17:13;94943;;;11.74;65.96
2711;BME280;20721;47.402;8.550;2023-03-14T00:18:12;94929;;;11.57;65.92
2711;BME280;20721;47.402;8.550;2023-03-14T00:19:12;94937;;;11.37;66.92
2711;BME280;20721;47.402;8.550;2023-03-14T00:20:12;94927;;;11.34;68.06
2711;BME280;20721;47.402;8.550;2023-03-14T00:21:12;94922;;;11.33;67.52
2711;BME280;20721;47.402;8.550;2023-03-14T00:22:12;94932;;;11.32;68.33
2711;BME280;20721;47.402;8.550;2023-03-14T00:23:12;94933;;;11.28;66.80
2711;BME280;20721;47.402;8.550;2023-03-14T00:24:12;94930;;;11.24;67.78
2711;BME280;20721;47.402;8.550;2023-03-14T00:25:12;94915;;;11.17;67.30
2711;BME280;20721;47.402;8.550;2023-03-14T00:26:13;94913;;;11.19;67.74
2711;BME280;20721;47.402;8.550;2023-03-14T00:27:12;94897;;;11.03;64.85
2711;BME280;20721;47.402;8.550;2023-03-14T00:28:12;94893;;;11.07;65.84
2711;BME280;20721;47.402;8.550;2023-03-14T00:29:12;94898;;;10.87;66.05
2711;BME280;20721;47.402;8.550;2023-03-14T00:30:12;94874;;;10.69;66.24
2711;BME280;20721;47.402;8.550;2023-03-14T00:31:13;94869;;;10.54;67.06
2711;BME280;20721;47.402;8.550;2023-03-14T00:32:12;94858;;;10.36;67.78
2711;BME280;20721;47.402;8.550;2023-03-14T00:33:12;94821;;;10.28;68.25
2711;BME280;20721;47.402;8.550;2023-03-14T00:34:12;94804;;;10.10;67.18
2711;BME280;20721;47.402;8.550;2023-03-14T00:35:12;94793;;;9.78;69.02
2711;BME280;20721;47.402;8.550;2023-03-14T00:36:13;94780;;;9.56;68.94
2711;BME280;20721;47.402;8.550;2023-03-14T00:37:12;94805;;;9.37;69.32
2711;BME280;20721;47.402;8.550;2023-03-14T00:38:12;94798;;;9.22;70.47
2711;BME280;20721;47.402;8.550;2023-03-14T00:39:12;94822;;;9.29;70.76
2711;BME280;20721;47.402;8.550;2023-03-14T00:40:12;94806;;;9.34;70.57
2711;BME280;20721;47.402;8.550;2023-03-14T00:41:13;94807;;;9.33;70.58
2711;BME280;20721;47.402;8.550;2023-03-14T00:42:13;94805;;;9.35;70.39
2711;BME280;20721;47.402;8.550;2023-03-14T00:43:12;94799;;;9.40;70.92
2711;BME280;20721;47.402;8.550;2023-03-14T00:44:12;94798;;;9.42;69.80
2711;BME280;20721;47.402;8.550;2023-03-14T00:45:12;94799;;;9.48;70.24
2711;BME280;20721;47.402;8.550;2023-03-14T00:46:12;94795;;;9.49;68.63
2711;BME280;20721;47.402;8.550;2023-03-14T00:47:12;94794;;;9.57;68.76
2711;BME280;20721;47.402;8.550;2023-03-14T00:48:13;94804;;;9.52;68.27
2711;BME280;20721;47.402;8.550;2023-03-14T00:49:12;94809;;;9.59;68.56
2711;BME280;20721;47.402;8.550;2023-03-14T00:51:15;94820;;;9.72;69.01
2711;BME280;20721;47.402;8.550;2023-03-14T00:52:12;94827;;;9.79;68.65
2711;BME280;20721;47.402;8.550;2023-03-14T00:54:12;94814;;;9.71;66.79
2711;BME280;20721;47.402;8.550;2023-03-14T00:55:12;94806;;;9.69;67.53
2711;BME280;20721;47.402;8.550;2023-03-14T00:56:12;94799;;;9.60;67.08
2711;BME280;20721;47.402;8.550;2023-03-14T00:57:12;94814;;;9.37;67.40
2711;BME280;20721;47.402;8.550;2023-03-14T00:58:13;94803;;;9.35;67.95
2711;BME280;20721;47.402;8.550;2023-03-14T00:59:12;94804;;;9.42;68.29
2711;BME280;20721;47.402;8.550;2023-03-14T01:00:12;94786;;;9.43;68.19
2711;BME280;20721;47.402;8.550;2023-03-14T01:01:13;94809;;;9.33;66.67
2711;BME280;20721;47.402;8.550;2023-03-14T01:02:12;94821;;;9.40;67.13
2711;BME280;20721;47.402;8.550;2023-03-14T01:03:13;94819;;;9.31;67.23
2711;BME280;20721;47.402;8.550;2023-03-14T01:04:12;94816;;;9.36;67.04
2711;BME280;20721;47.402;8.550;2023-03-14T01:05:12;94839;;;9.34;67.49
2711;BME280;20721;47.402;8.550;2023-03-14T01:06:14;94830;;;9.39;68.15
2711;BME280;20721;47.402;8.550;2023-03-14T01:07:12;94841;;;9.47;67.56
2711;BME280;20721;47.402;8.550;2023-03-14T01:08:12;94846;;;9.62;68.38
2711;BME280;20721;47.402;8.550;2023-03-14T01:09:12;94849;;;9.78;67.30
2711;BME280;20721;47.402;8.550;2023-03-14T01:10:12;94851;;;9.96;66.75
2711;BME280;20721;47.402;8.550;2023-03-14T01:11:14;94845;;;10.10;66.93
2711;BME280;20721;47.402;8.550;2023-03-14T01:12:12;94844;;;10.28;65.87
2711;BME280;20721;47.402;8.550;2023-03-14T01:13:12;94839;;;10.34;64.54
2711;BME280;20721;47.402;8.550;2023-03-14T01:14:12;94848;;;10.46;64.76
2711;BME280;20721;47.402;8.550;2023-03-14T01:15:12;94842;;;10.42;63.41
2711;BME280;20721;47.402;8.550;2023-03-14T01:16:16;94847;;;10.39;63.96
2711;BME280;20721;47.402;8.550;2023-03-14T01:17:12;94849;;;10.41;64.74
2711;BME280;20721;47.402;8.550;2023-03-14T01:19:12;94844;;;10.39;63.26
2711;BME280;20721;47.402;8.550;2023-03-14T01:20:13;94847;;;10.36;62.62
2711;BME280;20721;47.402;8.550;2023-03-14T01:22:12;94852;;;10.32;63.51
2711;BME280;20721;47.402;8.550;2023-03-14T01:23:12;94839;;;10.30;63.51
2711;BME280;20721;47.402;8.550;2023-03-14T01:24:12;94836;;;10.38;63.65
2711;BME280;20721;47.402;8.550;2023-03-14T01:25:15;94841;;;10.44;62.73
2711;BME280;20721;47.402;8.550;2023-03-14T01:26:13;94840;;;10.45;61.84
2711;BME280;20721;47.402;8.550;2023-03-14T01:27:12;94835;;;10.39;62.04
2711;BME280;20721;47.402;8.550;2023-03-14T01:28:12;94839;;;10.40;61.98
2711;BME280;20721;47.402;8.550;2023-03-14T01:29:12;94832;;;10.23;62.18
2711;BME280;20721;47.402;8.550;2023-03-14T01:30:12;94832;;;10.19;62.35
2711;BME280;20721;47.402;8.550;2023-03-14T01:31:12;94830;;;10.23;62.73
2711;BME280;20721;47.402;8.550;2023-03-14T01:32:12;94827;;;10.32;63.03
2711;BME280;20721;47.402;8.550;2023-03-14T01:33:14;94835;;;10.42;63.48
2711;BME280;20721;47.402;8.550;2023-03-14T01:34:12;94829;;;10.39;62.17
2711;BME280;20721;47.402;8.550;2023-03-14T01:35:12;94828;;;10.44;62.16
2711;BME280;20721;47.402;8.550;2023-03-14T01:36:13;94827;;;10.50;62.47
2711;BME280;20721;47.402;8.550;2023-03-14T01:37:12;94818;;;10.52;62.26
2711;BME280;20721;47.402;8.550;2023-03-14T01:39:13;94819;;;10.55;62.06
2711;BME280;20721;47.402;8.550;2023-03-14T01:40:16;94819;;;10.56;61.62
2711;BME280;20721;47.402;8.550;2023-03-14T01:41:14;94810;;;10.54;61.41
2711;BME280;20721;47.402;8.550;2023-03-14T01:43:14;94813;;;10.58;61.73
2711;BME280;20721;47.402;8.550;2023-03-14T01:46:21;94817;;;10.55;62.09
2711;BME280;20721;47.402;8.550;2023-03-14T01:47:12;94814;;;10.56;62.05
2711;BME280;20721;47.402;8.550;2023-03-14T01:48:12;94813;;;10.59;62.19
2711;BME280;20721;47.402;8.550;2023-03-14T01:49:21;94809;;;10.56;62.23
2711;BME280;20721;47.402;8.550;2023-03-14T01:50:12;94810;;;10.62;61.75
2711;BME280;20721;47.402;8.550;2023-03-14T01:51:13;94806;;;10.68;61.73
2711;BME280;20721;47.402;8.550;2023-03-14T01:52:16;94807;;;10.73;61.72
2711;BME280;20721;47.402;8.550;2023-03-14T01:55:14;94790;;;10.74;60.43
2711;BME280;20721;47.402;8.550;2023-03-14T01:57:14;94790;;;10.73;61.43
2711;BME280;20721;47.402;8.550;2023-03-14T01:58:12;94788;;;10.67;61.08
2711;BME280;20721;47.402;8.550;2023-03-14T01:59:12;94787;;;10.70;61.31
2711;BME280;20721;47.402;8.550;2023-03-14T02:00:15;94780;;;10.71;61.35
2711;BME280;20721;47.402;8.550;2023-03-14T02:01:13;94765;;;10.62;60.34
2711;BME280;20721;47.402;8.550;2023-03-14T02:02:13;94778;;;10.46;60.01
2711;BME280;20721;47.402;8.550;2023-03-14T02:03:14;94763;;;10.39;60.83
2711;BME280;20721;47.402;8.550;2023-03-14T02:04:13;94767;;;10.33;61.26
2711;BME280;20721;47.402;8.550;2023-03-14T02:05:14;94771;;;10.37;60.44
2711;BME280;20721;47.402;8.550;2023-03-14T02:06:12;94764;;;10.41;60.36
2711;BME280;20721;47.402;8.550;2023-03-14T02:08:14;94757;;;10.26;59.29
2711;BME280;20721;47.402;8.550;2023-03-14T02:09:12;94761;;;10.24;60.53
2711;BME280;20721;47.402;8.550;2023-03-14T02:10:12;94759;;;10.22;60.83
2711;BME280;20721;47.402;8.550;2023-03-14T02:11:12;94759;;;10.28;61.42
2711;BME280;20721;47.402;8.550;2023-03-14T02:12:14;94756;;;10.38;60.94
2711;BME280;20721;47.402;8.550;2023-03-14T02:13:13;94757;;;10.40;60.24
2711;BME280;20721;47.402;8.550;2023-03-14T02:14:14;94756;;;10.43;60.33
2711;BME280;20721;47.402;8.550;2023-03-14T02:15:13;94753;;;10.46;59.94
2711;BME280;20721;47.402;8.550;2023-03-14T02:16:12;94744;;;10.39;59.01
2711;BME280;20721;47.402;8.550;2023-03-14T02:17:13;94744;;;10.37;60.30
2711;BME280;20721;47.402;8.550;2023-03-14T02:18:13;94749;;;10.22;60.10
2711;BME280;20721;47.402;8.550;2023-03-14T02:19:12;94736;;;10.27;60.52
2711;BME280;20721;47.402;8.550;2023-03-14T02:21:16;94745;;;10.33;60.27
2711;BME280;20721;47.402;8.550;2023-03-14T02:22:15;94737;;;10.24;60.31
2711;BME280;20721;47.402;8.550;2023-03-14T02:23:13;94733;;;10.16;60.24
2711;BME280;20721;47.402;8.550;2023-03-14T02:26:31;94724;;;10.16;60.92
2711;BME280;20721;47.402;8.550;2023-03-14T02:27:13;94716;;;10.08;60.86
2711;BME280;20721;47.402;8.550;2023-03-14T02:28:13;94717;;;10.07;61.24
2711;BME280;20721;47.402;8.550;2023-03-14T02:29:12;94717;;;10.04;61.33
2711;BME280;20721;47.402;8.550;2023-03-14T02:30:13;94708;;;9.89;60.76
2711;BME280;20721;47.402;8.550;2023-03-14T02:31:13;94718;;;9.95;61.54
2711;BME280;20721;47.402;8.550;2023-03-14T02:32:12;94720;;;9.96;61.55
2711;BME280;20721;47.402;8.550;2023-03-14T02:33:13;94719;;;10.05;61.06
2711;BME280;20721;47.402;8.550;2023-03-14T02:34:12;94709;;;10.18;61.00
2711;BME280;20721;47.402;8.550;2023-03-14T02:35:14;94722;;;10.29;61.38
2711;BME280;20721;47.402;8.550;2023-03-14T02:36:13;94727;;;10.34;59.61
2711;BME280;20721;47.402;8.550;2023-03-14T02:37:13;94714;;;10.30;59.76
2711;BME280;20721;47.402;8.550;2023-03-14T02:38:15;94709;;;10.34;60.03
2711;BME280;20721;47.402;8.550;2023-03-14T02:39:15;94715;;;10.40;59.84
2711;BME280;20721;47.402;8.550;2023-03-14T02:40:12;94712;;;10.48;59.97
2711;BME280;20721;47.402;8.550;2023-03-14T02:41:13;94713;;;10.55;60.00
2711;BME280;20721;47.402;8.550;2023-03-14T02:42:13;94710;;;10.59;59.92
2711;BME280;20721;47.402;8.550;2023-03-14T02:43:13;94708;;;10.64;60.02
2711;BME280;20721;47.402;8.550;2023-03-14T02:44:13;94701;;;10.56;59.20
2711;BME280;20721;47.402;8.550;2023-03-14T02:46:14;94703;;;10.54;59.37
2711;BME280;20721;47.402;8.550;2023-03-14T02:47:13;94707;;;10.40;59.09
2711;BME280;20721;47.402;8.550;2023-03-14T02:48:14;94703;;;10.44;59.65
2711;BME280;20721;47.402;8.550;2023-03-14T02:49:13;94701;;;10.50;59.49
2711;BME280;20721;47.402;8.550;2023-03-14T02:50:14;94697;;;10.56;59.88
2711;BME280;20721;47.402;8.550;2023-03-14T02:51:12;94685;;;10.64;59.73
2711;BME280;20721;47.402;8.550;2023-03-14T02:52:13;94693;;;10.68;59.58
2711;BME280;20721;47.402;8.550;2023-03-14T02:53:15;94685;;;10.75;59.65
2711;BME280;20721;47.402;8.550;2023-03-14T02:54:13;94687;;;10.80;59.25
2711;BME280;20721;47.402;8.550;2023-03-14T02:55:13;94687;;;10.85;59.17
2711;BME280;20721;47.402;8.550;2023-03-14T02:56:13;94690;;;10.90;59.57
2711;BME280;20721;47.402;8.550;2023-03-14T02:57:13;94685;;;10.97;58.74
2711;BME280;20721;47.402;8.550;2023-03-14T02:58:13;94688;;;10.98;58.73
2711;BME280;20721;47.402;8.550;2023-03-14T02:59:13;94696;;;10.99;58.66
2711;BME280;20721;47.402;8.550;2023-03-14T03:00:13;94694;;;10.94;58.63
2711;BME280;20721;47.402;8.550;2023-03-14T03:01:13;94693;;;10.91;58.81
2711;BME280;20721;47.402;8.550;2023-03-14T03:03:13;94686;;;10.94;58.58
2711;BME280;20721;47.402;8.550;2023-03-14T03:04:13;94687;;;10.95;58.49
2711;BME280;20721;47.402;8.550;2023-03-14T03:05:13;94681;;;10.94;58.47
2711;BME280;20721;47.402;8.550;2023-03-14T03:06:12;94682;;;10.96;58.63
2711;BME280;20721;47.402;8.550;2023-03-14T03:07:13;94689;;;11.00;58.67
2711;BME280;20721;47.402;8.550;2023-03-14T03:08:13;94686;;;11.03;58.66
2711;BME280;20721;47.402;8.550;2023-03-14T03:10:13;94689;;;10.87;58.53
2711;BME280;20721;47.402;8.550;2023-03-14T03:11:13;94686;;;10.79;58.98
2711;BME280;20721;47.402;8.550;2023-03-14T03:13:13;94683;;;10.76;59.25
2711;BME280;20721;47.402;8.550;2023-03-14T03:14:13;94686;;;10.79;59.46
2711;BME280;20721;47.402;8.550;2023-03-14T03:16:14;94676;;;10.77;59.64
2711;BME280;20721;47.402;8.550;2023-03-14T03:17:13;94680;;;10.81;59.63
2711;BME280;20721;47.402;8.550;2023-03-14T03:18:13;94674;;;10.84;59.33
2711;BME280;20721;47.402;8.550;2023-03-14T03:19:13;94676;;;10.85;59.37
2711;BME280;20721;47.402;8.550;2023-03-14T03:20:13;94679;;;10.87;59.66
2711;BME280;20721;47.402;8.550;2023-03-14T03:21:13;94677;;;10.88;59.59
2711;BME280;20721;47.402;8.550;2023-03-14T03:22:13;94677;;;10.90;59.45
2711;BME280;20721;47.402;8.550;2023-03-14T03:23:13;94680;;;10.96;59.45
2711;BME280;20721;47.402;8.550;2023-03-14T03:24:13;94671;;;11.02;59.67
2711;BME280;20721;47.402;8.550;2023-03-14T03:25:13;94666;;;11.07;59.55
2711;BME280;20721;47.402;8.550;2023-03-14T03:26:13;94674;;;10.98;59.23
2711;BME280;20721;47.402;8.550;2023-03-14T03:28:13;94668;;;10.99;58.97
2711;BME280;20721;47.402;8.550;2023-03-14T03:29:13;94669;;;11.02;59.04
2711;BME280;20721;47.402;8.550;2023-03-14T03:30:13;94671;;;11.05;59.06
2711;BME280;20721;47.402;8.550;2023-03-14T03:33:13;94661;;;11.07;58.54
2711;BME280;20721;47.402;8.550;2023-03-14T03:34:13;94657;;;10.95;58.25
2711;BME280;20721;47.402;8.550;2023-03-14T03:36:13;94659;;;10.98;59.36
2711;BME280;20721;47.402;8.550;2023-03-14T03:37:13;94655;;;11.03;59.18
2711;BME280;20721;47.402;8.550;2023-03-14T03:38:13;94657;;;11.08;59.05
2711;BME280;20721;47.402;8.550;2023-03-14T03:39:13;94653;;;11.13;58.85
2711;BME280;20721;47.402;8.550;2023-03-14T03:40:13;94659;;;11.16;58.91
2711;BME280;20721;47.402;8.550;2023-03-14T03:41:13;94659;;;11.19;58.86
2711;BME280;20721;47.402;8.550;2023-03-14T03:42:13;94659;;;11.23;58.93
2711;BME280;20721;47.402;8.550;2023-03-14T03:43:13;94654;;;11.18;58.10
2711;BME280;20721;47.402;8.550;2023-03-14T03:45:13;94657;;;11.20;58.73
2711;BME280;20721;47.402;8.550;2023-03-14T03:46:13;94658;;;11.23;58.62
2711;BME280;20721;47.402;8.550;2023-03-14T03:47:13;94657;;;11.26;58.64
2711;BME280;20721;47.402;8.550;2023-03-14T03:48:13;94657;;;11.28;58.27
2711;BME280;20721;47.402;8.550;2023-03-14T03:49:13;94655;;;11.30;58.62
2711;BME280;20721;47.402;8.550;2023-03-14T03:51:14;94653;;;11.29;58.51
2711;BME280;20721;47.402;8.550;2023-03-14T03:52:13;94648;;;11.27;58.43
2711;BME280;20721;47.402;8.550;2023-03-14T03:53:15;94648;;;11.18;58.00
2711;BME280;20721;47.402;8.550;2023-03-14T03:54:13;94645;;;11.14;58.13
2711;BME280;20721;47.402;8.550;2023-03-14T03:55:13;94640;;;11.09;58.17
2711;BME280;20721;47.402;8.550;2023-03-14T03:56:13;94637;;;11.07;58.38
2711;BME280;20721;47.402;8.550;2023-03-14T03:57:13;94636;;;11.08;58.38
2711;BME280;20721;47.402;8.550;2023-03-14T03:59:13;94628;;;11.02;58.31
2711;BME280;20721;47.402;8.550;2023-03-14T04:00:13;94628;;;10.94;58.00
2711;BME280;20721;47.402;8.550;2023-03-14T04:01:13;94624;;;10.92;58.20
2711;BME280;20721;47.402;8.550;2023-03-14T04:02:13;94623;;;10.88;58.09
2711;BME280;20721;47.402;8.550;2023-03-14T04:03:13;94617;;;10.85;58.63
2711;BME280;20721;47.402;8.550;2023-03-14T04:05:13;94613;;;10.86;58.39
2711;BME280;20721;47.402;8.550;2023-03-14T04:06:13;94612;;;10.89;58.54
2711;BME280;20721;47.402;8.550;2023-03-14T04:07:13;94612;;;10.90;58.55
2711;BME280;20721;47.402;8.550;2023-03-14T04:08:13;94607;;;10.91;58.66
2711;BME280;20721;47.402;8.550;2023-03-14T04:09:13;94610;;;10.94;58.39
2711;BME280;20721;47.402;8.550;2023-03-14T04:10:13;94606;;;10.95;58.28
2711;BME280;20721;47.402;8.550;2023-03-14T04:11:13;94607;;;10.94;57.79
2711;BME280;20721;47.402;8.550;2023-03-14T04:12:13;94609;;;10.92;57.76
2711;BME280;20721;47.402;8.550;2023-03-14T04:13:13;94611;;;10.90;58.09
2711;BME280;20721;47.402;8.550;2023-03-14T04:14:13;94604;;;10.85;57.98
2711;BME280;20721;47.402;8.550;2023-03-14T04:15:13;94604;;;10.84;58.17
2711;BME280;20721;47.402;8.550;2023-03-14T04:16:14;94596;;;10.82;58.12
2711;BME280;20721;47.402;8.550;2023-03-14T04:17:13;94598;;;10.81;58.32
2711;BME280;20721;47.402;8.550;2023-03-14T04:18:13;94599;;;10.83;58.20
2711;BME280;20721;47.402;8.550;2023-03-14T04:19:13;94597;;;10.84;57.86
2711;BME280;20721;47.402;8.550;2023-03-14T04:20:13;94598;;;10.74;57.95
2711;BME280;20721;47.402;8.550;2023-03-14T04:21:13;94597;;;10.72;58.14
2711;BME280;20721;47.402;8.550;2023-03-14T04:22:13;94597;;;10.73;58.13
2711;BME280;20721;47.402;8.550;2023-03-14T04:24:13;94592;;;10.74;57.95
2711;BME280;20721;47.402;8.550;2023-03-14T04:25:13;94595;;;10.79;58.00
2711;BME280;20721;47.402;8.550;2023-03-14T04:27:14;94596;;;10.80;57.92
2711;BME280;20721;47.402;8.550;2023-03-14T04:28:13;94598;;;10.82;57.76
2711;BME280;20721;47.402;8.550;2023-03-14T04:29:13;94605;;;10.84;57.70
2711;BME280;20721;47.402;8.550;2023-03-14T04:30:13;94601;;;10.82;57.22
2711;BME280;20721;47.402;8.550;2023-03-14T04:31:15;94602;;;10.78;57.06
2711;BME280;20721;47.402;8.550;2023-03-14T04:33:17;94593;;;10.77;57.34
2711;BME280;20721;47.402;8.550;2023-03-14T04:34:13;94592;;;10.75;57.62
2711;BME280;20721;47.402;8.550;2023-03-14T04:35:13;94588;;;10.72;57.37
2711;BME280;20721;47.402;8.550;2023-03-14T04:36:13;94589;;;10.71;57.83
2711;BME280;20721;47.402;8.550;2023-03-14T04:37:13;94590;;;10.73;57.58
2711;BME280;20721;47.402;8.550;2023-03-14T04:38:13;94589;;;10.74;56.91
2711;BME280;20721;47.402;8.550;2023-03-14T04:39:13;94584;;;10.70;57.05
2711;BME280;20721;47.402;8.550;2023-03-14T04:40:13;94584;;;10.61;57.27
2711;BME280;20721;47.402;8.550;2023-03-14T04:41:13;94585;;;10.60;57.49
2711;BME280;20721;47.402;8.550;2023-03-14T04:42:13;94583;;;10.59;57.67
2711;BME280;20721;47.402;8.550;2023-03-14T04:43:13;94582;;;10.63;57.79
2711;BME280;20721;47.402;8.550;2023-03-14T04:44:13;94578;;;10.64;57.77
2711;BME280;20721;47.402;8.550;2023-03-14T04:45:13;94582;;;10.67;57.49
2711;BME280;20721;47.402;8.550;2023-03-14T04:46:13;94580;;;10.70;57.81
2711;BME280;20721;47.402;8.550;2023-03-14T04:47:13;94577;;;10.73;57.90
2711;BME280;20721;47.402;8.550;2023-03-14T04:48:13;94580;;;10.79;57.86
2711;BME280;20721;47.402;8.550;2023-03-14T04:49:13;94575;;;10.84;57.92
2711;BME280;20721;47.402;8.550;2023-03-14T04:50:13;94579;;;10.88;57.41
2711;BME280;20721;47.402;8.550;2023-03-14T04:51:13;94569;;;10.90;57.39
2711;BME280;20721;47.402;8.550;2023-03-14T04:52:13;94563;;;10.92;57.08
2711;BME280;20721;47.402;8.550;2023-03-14T04:54:13;94557;;;10.94;57.06
2711;BME280;20721;47.402;8.550;2023-03-14T04:55:13;94554;;;10.95;56.74
2711;BME280;20721;47.402;8.550;2023-03-14T04:57:13;94545;;;10.98;56.52
2711;BME280;20721;47.402;8.550;2023-03-14T04:58:13;94546;;;11.00;56.53
2711;BME280;20721;47.402;8.550;2023-03-14T04:59:13;94544;;;10.94;56.25
2711;BME280;20721;47.402;8.550;2023-03-14T05:00:13;94541;;;10.89;56.76
2711;BME280;20721;47.402;8.550;2023-03-14T05:03:14;94543;;;10.87;56.66
2711;BME280;20721;47.402;8.550;2023-03-14T05:04:13;94549;;;10.89;57.03
2711;BME280;20721;47.402;8.550;2023-03-14T05:05:13;94548;;;10.62;56.02
2711;BME280;20721;47.402;8.550;2023-03-14T05:06:13;94549;;;10.61;56.76
2711;BME280;20721;47.402;8.550;2023-03-14T05:07:15;94538;;;10.48;57.38
2711;BME280;20721;47.402;8.550;2023-03-14T05:08:13;94533;;;10.50;57.84
2711;BME280;20721;47.402;8.550;2023-03-14T05:09:13;94531;;;10.54;57.35
2711;BME280;20721;47.402;8.550;2023-03-14T05:10:13;94536;;;10.52;57.43
2711;BME280;20721;47.402;8.550;2023-03-14T05:11:13;94529;;;10.51;57.32
2711;BME280;20721;47.402;8.550;2023-03-14T05:12:13;94531;;;10.56;57.42
2711;BME280;20721;47.402;8.550;2023-03-14T05:13:13;94528;;;10.60;57.29
2711;BME280;20721;47.402;8.550;2023-03-14T05:14:13;94527;;;10.67;57.33
2711;BME280;20721;47.402;8.550;2023-03-14T05:15:13;94527;;;10.73;56.89
2711;BME280;20721;47.402;8.550;2023-03-14T05:16:13;94521;;;10.80;57.09
2711;BME280;20721;47.402;8.550;2023-03-14T05:17:14;94516;;;10.83;56.92
2711;BME280;20721;47.402;8.550;2023-03-14T05:18:13;94519;;;10.84;56.54
2711;BME280;20721;47.402;8.550;2023-03-14T05:19:13;94513;;;10.86;56.70
2711;BME280;20721;47.402;8.550;2023-03-14T05:21:13;94517;;;10.87;56.72
2711;BME280;20721;47.402;8.550;2023-03-14T05:22:13;94513;;;10.83;56.17
2711;BME280;20721;47.402;8.550;2023-03-14T05:23:13;94514;;;10.75;55.08
2711;BME280;20721;47.402;8.550;2023-03-14T05:24:13;94519;;;10.73;55.46
2711;BME280;20721;47.402;8.550;2023-03-14T05:26:13;94515;;;10.60;56.14
2711;BME280;20721;47.402;8.550;2023-03-14T05:27:13;94515;;;10.59;56.14
2711;BME280;20721;47.402;8.550;2023-03-14T05:28:13;94511;;;10.60;56.24
2711;BME280;20721;47.402;8.550;2023-03-14T05:29:13;94506;;;10.63;56.18
2711;BME280;20721;47.402;8.550;2023-03-14T05:30:13;94512;;;10.66;56.20
2711;BME280;20721;47.402;8.550;2023-03-14T05:31:13;94505;;;10.68;55.92
2711;BME280;20721;47.402;8.550;2023-03-14T05:34:13;94499;;;10.63;56.20
2711;BME280;20721;47.402;8.550;2023-03-14T05:35:13;94494;;;10.64;56.33
2711;BME280;20721;47.402;8.550;2023-03-14T05:36:13;94495;;;10.67;56.44
2711;BME280;20721;47.402;8.550;2023-03-14T05:37:13;94494;;;10.70;56.16
2711;BME280;20721;47.402;8.550;2023-03-14T05:38:13;94488;;;10.72;56.23
2711;BME280;20721;47.402;8.550;2023-03-14T05:39:13;94477;;;10.73;56.07
2711;BME280;20721;47.402;8.550;2023-03-14T05:40:13;94478;;;10.77;55.99
2711;BME280;20721;47.402;8.550;2023-03-14T05:41:13;94475;;;10.74;55.03
2711;BME280;20721;47.402;8.550;2023-03-14T05:42:13;94470;;;10.76;55.06
2711;BME280;20721;47.402;8.550;2023-03-14T05:43:14;94466;;;10.77;55.14
2711;BME280;20721;47.402;8.550;2023-03-14T05:44:13;94457;;;10.76;54.99
2711;BME280;20721;47.402;8.550;2023-03-14T05:45:13;94455;;;10.67;54.79
2711;BME280;20721;47.402;8.550;2023-03-14T05:46:13;94451;;;10.64;55.22
2711;BME280;20721;47.402;8.550;2023-03-14T05:47:13;94447;;;10.67;55.43
2711;BME280;20721;47.402;8.550;2023-03-14T05:49:13;94447;;;10.70;55.33
2711;BME280;20721;47.402;8.550;2023-03-14T05:50:13;94452;;;10.75;55.32
2711;BME280;20721;47.402;8.550;2023-03-14T05:51:13;94454;;;10.72;54.86
2711;BME280;20721;47.402;8.550;2023-03-14T05:53:13;94447;;;10.76;54.87
2711;BME280;20721;47.402;8.550;2023-03-14T05:54:13;94444;;;10.81;54.78
2711;BME280;20721;47.402;8.550;2023-03-14T05:55:13;94445;;;10.85;54.61
2711;BME280;20721;47.402;8.550;2023-03-14T05:56:13;94442;;;10.90;54.62
2711;BME280;20721;47.402;8.550;2023-03-14T05:57:13;94442;;;10.89;54.27
2711;BME280;20721;47.402;8.550;2023-03-14T05:59:14;94434;;;10.88;54.29
2711;BME280;20721;47.402;8.550;2023-03-14T06:01:13;94429;;;10.83;54.28
2711;BME280;20721;47.402;8.550;2023-03-14T06:02:13;94428;;;10.82;54.54
2711;BME280;20721;47.402;8.550;2023-03-14T06:03:13;94425;;;10.76;54.22
2711;BME280;20721;47.402;8.550;2023-03-14T06:04:13;94424;;;10.68;54.08
2711;BME280;20721;47.402;8.550;2023-03-14T06:05:13;94433;;;10.67;54.45
2711;BME280;20721;47.402;8.550;2023-03-14T06:06:13;94429;;;10.53;54.16
2711;BME280;20721;47.402;8.550;2023-03-14T06:07:13;94425;;;10.46;54.23
2711;BME280;20721;47.402;8.550;2023-03-14T06:08:13;94420;;;10.45;54.59
2711;BME280;20721;47.402;8.550;2023-03-14T06:09:13;94416;;;10.47;54.77
2711;BME280;20721;47.402;8.550;2023-03-14T06:10:13;94413;;;10.49;54.72
2711;BME280;20721;47.402;8.550;2023-03-14T06:11:13;94412;;;10.42;54.61
2711;BME280;20721;47.402;8.550;2023-03-14T06:12:13;94413;;;10.27;54.07
2711;BME280;20721;47.402;8.550;2023-03-14T06:13:15;94423;;;10.29;54.53
2711;BME280;20721;47.402;8.550;2023-03-14T06:14:13;94417;;;10.25;54.66
2711;BME280;20721;47.402;8.550;2023-03-14T06:15:13;94417;;;10.29;54.53
2711;BME280;20721;47.402;8.550;2023-03-14T06:16:14;94420;;;10.32;54.37
2711;BME280;20721;47.402;8.550;2023-03-14T06:17:13;94425;;;10.34;54.59
2711;BME280;20721;47.402;8.550;2023-03-14T06:18:14;94427;;;10.40;54.38
2711;BME280;20721;47.402;8.550;2023-03-14T06:19:13;94430;;;10.45;54.47
2711;BME280;20721;47.402;8.550;2023-03-14T06:20:13;94432;;;10.51;54.35